Time,TemperatureF,DewpointF,PressureIn,WindDirection,WindDirectionDegrees,WindSpeedMPH,WindSpeedGustMPH,Humidity,HourlyPrecipIn,Conditions,Clouds,dailyrainin,SoftwareType,DateUTC
2013-01-30 00:13:00,61.4,61.0,30.14,SW,234,0.0,1.0,98,0.00,,,0.00,weatherlink.com 1.10,2013-01-30 05:13:00,
2013-01-30 00:27:00,60.9,60.0,30.14,SW,222,0.0,1.0,98,0.00,,,0.00,weatherlink.com 1.10,2013-01-30 05:27:00,
2013-01-30 00:43:00,60.7,60.0,30.13,SW,225,0.0,2.0,98,0.00,,,0.00,weatherlink.com 1.10,2013-01-30 05:43:00,
2013-01-30 00:58:00,60.8,61.0,30.12,WSW,239,2.0,2.0,99,0.00,,,0.00,weatherlink.com 1.10,2013-01-30 05:58:00,
2013-01-30 01:13:00,61.2,61.0,30.12,SSW,200,0.0,3.0,99,0.00,,,0.00,weatherlink.com 1.10,2013-01-30 06:13:00,
2013-01-30 01:28:00,61.4,61.0,30.11,SW,228,1.0,5.0,99,0.00,,,0.00,weatherlink.com 1.10,2013-01-30 06:28:00,
2013-01-30 01:58:00,62.1,62.0,30.11,West,276,4.0,4.0,98,0.00,,,0.00,weatherlink.com 1.10,2013-01-30 06:58:00,
2013-01-30 02:13:00,62.0,62.0,30.10,SSW,210,1.0,4.0,98,0.00,,,0.00,weatherlink.com 1.10,2013-01-30 07:13:00,
2013-01-30 02:28:00,62.2,61.0,30.09,SW,229,2.0,5.0,97,0.00,,,0.00,weatherlink.com 1.10,2013-01-30 07:28:00,
2013-01-30 02:43:00,62.4,62.0,30.09,WSW,255,1.0,6.0,97,0.00,,,0.00,weatherlink.com 1.10,2013-01-30 07:43:00,
2013-01-30 02:58:00,62.7,62.0,30.09,SSW,197,2.0,5.0,97,0.00,,,0.00,weatherlink.com 1.10,2013-01-30 07:58:00,
2013-01-30 03:13:00,62.7,62.0,30.09,West,267,3.0,9.0,96,0.01,,,0.01,weatherlink.com 1.10,2013-01-30 08:13:00,
2013-01-30 03:28:00,63.1,62.0,30.09,SW,231,2.0,4.0,96,0.01,,,0.01,weatherlink.com 1.10,2013-01-30 08:28:00,
2013-01-30 03:43:00,63.5,62.0,30.08,SW,233,0.0,5.0,96,0.01,,,0.01,weatherlink.com 1.10,2013-01-30 08:43:00,
2013-01-30 03:58:00,63.6,63.0,30.08,WSW,243,1.0,5.0,96,0.01,,,0.01,weatherlink.com 1.10,2013-01-30 08:58:00,
2013-01-30 04:13:00,63.4,62.0,30.07,SW,225,2.0,5.0,96,0.00,,,0.01,weatherlink.com 1.10,2013-01-30 09:13:00,
2013-01-30 04:28:00,63.2,62.0,30.07,SW,231,1.0,3.0,96,0.00,,,0.01,weatherlink.com 1.10,2013-01-30 09:28:00,
2013-01-30 04:43:00,63.2,62.0,30.07,SW,214,0.0,4.0,96,0.00,,,0.01,weatherlink.com 1.10,2013-01-30 09:43:00,
2013-01-30 04:58:00,63.2,62.0,30.06,ENE,57,1.0,7.0,96,0.00,,,0.01,weatherlink.com 1.10,2013-01-30 09:58:00,
2013-01-30 05:13:00,62.9,62.0,30.06,SSW,207,2.0,4.0,96,0.00,,,0.01,weatherlink.com 1.10,2013-01-30 10:13:00,
2013-01-30 05:28:00,62.6,62.0,30.06,SSW,209,1.0,5.0,96,0.00,,,0.01,weatherlink.com 1.10,2013-01-30 10:28:00,
2013-01-30 05:43:00,62.3,61.0,30.06,SSW,200,0.0,2.0,96,0.00,,,0.01,weatherlink.com 1.10,2013-01-30 10:43:00,
2013-01-30 05:58:00,61.9,61.0,30.05,SW,221,0.0,2.0,96,0.00,,,0.01,weatherlink.com 1.10,2013-01-30 10:58:00,
2013-01-30 06:13:00,61.5,61.0,30.05,SW,214,0.0,3.0,97,0.00,,,0.01,weatherlink.com 1.10,2013-01-30 11:13:00,
2013-01-30 06:28:00,61.4,61.0,30.06,SW,221,0.0,1.0,97,0.00,,,0.01,weatherlink.com 1.10,2013-01-30 11:28:00,
2013-01-30 06:43:00,61.5,61.0,30.06,SSW,211,0.0,2.0,97,0.00,,,0.01,weatherlink.com 1.10,2013-01-30 11:43:00,
2013-01-30 06:58:00,61.5,61.0,30.06,SSW,210,0.0,2.0,98,0.00,,,0.01,weatherlink.com 1.10,2013-01-30 11:58:00,
2013-01-30 07:13:00,61.4,61.0,30.06,SSW,210,1.0,2.0,98,0.00,,,0.01,weatherlink.com 1.10,2013-01-30 12:13:00,
2013-01-30 07:28:00,61.4,61.0,30.05,SSE,167,0.0,2.0,98,0.00,,,0.01,weatherlink.com 1.10,2013-01-30 12:28:00,
2013-01-30 07:43:00,61.8,61.0,30.05,SSW,207,1.0,6.0,98,0.00,,,0.01,weatherlink.com 1.10,2013-01-30 12:43:00,
2013-01-30 07:58:00,62.2,62.0,30.04,SW,218,0.0,4.0,98,0.00,,,0.01,weatherlink.com 1.10,2013-01-30 12:58:00,
2013-01-30 08:13:00,63.1,63.0,30.04,SW,219,2.0,5.0,98,0.00,,,0.01,weatherlink.com 1.10,2013-01-30 13:13:00,
2013-01-30 08:29:00,63.7,63.0,30.04,SSE,161,1.0,5.0,97,0.00,,,0.01,weatherlink.com 1.10,2013-01-30 13:29:00,
2013-01-30 08:43:00,63.9,63.0,30.03,SSE,151,0.0,6.0,96,0.00,,,0.01,weatherlink.com 1.10,2013-01-30 13:43:00,
2013-01-30 08:58:00,64.9,64.0,30.03,SSW,204,4.0,6.0,96,0.00,,,0.01,weatherlink.com 1.10,2013-01-30 13:58:00,
2013-01-30 09:14:00,66.0,64.0,30.02,SW,228,0.0,4.0,93,0.00,,,0.01,weatherlink.com 1.10,2013-01-30 14:14:00,
2013-01-30 09:28:00,67.7,65.0,30.01,SSW,206,5.0,8.0,91,0.00,,,0.01,weatherlink.com 1.10,2013-01-30 14:28:00,
2013-01-30 09:44:00,68.3,65.0,30.01,WSW,255,6.0,7.0,88,0.00,,,0.01,weatherlink.com 1.10,2013-01-30 14:44:00,
2013-01-30 09:59:00,68.9,65.0,30.02,SSW,197,3.0,11.0,87,0.00,,,0.01,weatherlink.com 1.10,2013-01-30 14:59:00,
2013-01-30 10:14:00,69.3,65.0,30.02,SSE,159,4.0,13.0,86,0.00,,,0.01,weatherlink.com 1.10,2013-01-30 15:14:00,
2013-01-30 10:29:00,68.8,65.0,30.02,ESE,121,3.0,9.0,87,0.00,,,0.01,weatherlink.com 1.10,2013-01-30 15:29:00,
2013-01-30 10:44:00,68.9,65.0,30.01,West,260,5.0,9.0,87,0.00,,,0.01,weatherlink.com 1.10,2013-01-30 15:44:00,
2013-01-30 10:59:00,68.7,65.0,30.01,SE,139,2.0,9.0,87,0.00,,,0.01,weatherlink.com 1.10,2013-01-30 15:59:00,
2013-01-30 11:14:00,70.0,66.0,29.99,SW,229,0.0,10.0,86,0.00,,,0.01,weatherlink.com 1.10,2013-01-30 16:14:00,
2013-01-30 11:29:00,70.9,66.0,29.99,ENE,65,2.0,11.0,84,0.00,,,0.01,weatherlink.com 1.10,2013-01-30 16:29:00,
2013-01-30 11:44:00,71.2,66.0,29.98,SW,229,2.0,10.0,83,0.00,,,0.01,weatherlink.com 1.10,2013-01-30 16:44:00,
2013-01-30 11:59:00,70.0,66.0,29.97,South,188,0.0,8.0,87,0.00,,,0.01,weatherlink.com 1.10,2013-01-30 16:59:00,
2013-01-30 12:14:00,69.6,66.0,29.96,ESE,113,1.0,7.0,88,0.00,,,0.01,weatherlink.com 1.10,2013-01-30 17:14:00,
2013-01-30 12:29:00,70.5,66.0,29.95,SW,232,5.0,9.0,86,0.00,,,0.01,weatherlink.com 1.10,2013-01-30 17:29:00,
2013-01-30 12:44:00,72.5,67.0,29.94,SSW,211,2.0,13.0,82,0.00,,,0.01,weatherlink.com 1.10,2013-01-30 17:44:00,
2013-01-30 12:59:00,72.4,66.0,29.93,SSW,210,5.0,11.0,81,0.00,,,0.01,weatherlink.com 1.10,2013-01-30 17:59:00,
2013-01-30 13:14:00,71.1,65.0,29.92,South,169,1.0,10.0,82,0.00,,,0.01,weatherlink.com 1.10,2013-01-30 18:14:00,
2013-01-30 13:29:00,69.9,65.0,29.91,SSW,194,6.0,10.0,85,0.00,,,0.01,weatherlink.com 1.10,2013-01-30 18:29:00,
2013-01-30 13:44:00,70.2,66.0,29.91,West,281,2.0,9.0,85,0.00,,,0.01,weatherlink.com 1.10,2013-01-30 18:44:00,
2013-01-30 13:59:00,70.9,66.0,29.90,South,174,4.0,8.0,84,0.00,,,0.01,weatherlink.com 1.10,2013-01-30 18:59:00,
2013-01-30 14:14:00,71.3,66.0,29.89,SW,224,5.0,11.0,84,0.00,,,0.01,weatherlink.com 1.10,2013-01-30 19:14:00,
2013-01-30 14:30:00,71.2,67.0,29.88,WSW,249,3.0,9.0,85,0.00,,,0.01,weatherlink.com 1.10,2013-01-30 19:30:00,
2013-01-30 14:44:00,72.2,68.0,29.87,SW,232,8.0,10.0,85,0.00,,,0.01,weatherlink.com 1.10,2013-01-30 19:44:00,
2013-01-30 14:59:00,72.8,67.0,29.86,West,259,2.0,10.0,83,0.00,,,0.01,weatherlink.com 1.10,2013-01-30 19:59:00,
2013-01-30 15:14:00,73.2,67.0,29.86,South,176,1.0,13.0,82,0.00,,,0.01,weatherlink.com 1.10,2013-01-30 20:14:00,
2013-01-30 15:29:00,73.1,67.0,29.85,SSW,210,2.0,12.0,81,0.00,,,0.01,weatherlink.com 1.10,2013-01-30 20:29:00,
2013-01-30 15:44:00,72.2,66.0,29.85,SSW,208,8.0,12.0,82,0.00,,,0.01,weatherlink.com 1.10,2013-01-30 20:44:00,
2013-01-30 16:00:00,71.5,67.0,29.84,SE,124,8.0,12.0,84,0.00,,,0.01,weatherlink.com 1.10,2013-01-30 21:00:00,
2013-01-30 16:15:00,71.0,66.0,29.84,WSW,257,7.0,12.0,85,0.00,,,0.01,weatherlink.com 1.10,2013-01-30 21:15:00,
2013-01-30 16:29:00,70.4,66.0,29.83,SW,224,3.0,10.0,85,0.00,,,0.01,weatherlink.com 1.10,2013-01-30 21:29:00,
2013-01-30 16:44:00,70.1,66.0,29.82,SSW,210,2.0,14.0,86,0.00,,,0.01,weatherlink.com 1.10,2013-01-30 21:44:00,
2013-01-30 16:59:00,69.8,66.0,29.82,South,174,3.0,12.0,86,0.00,,,0.01,weatherlink.com 1.10,2013-01-30 21:59:00,
2013-01-30 17:15:00,69.0,65.0,29.81,ESE,112,3.0,13.0,87,0.00,,,0.01,weatherlink.com 1.10,2013-01-30 22:15:00,
2013-01-30 17:30:00,68.0,64.0,29.80,SW,214,2.0,8.0,87,0.00,,,0.01,weatherlink.com 1.10,2013-01-30 22:30:00,
2013-01-30 17:45:00,67.2,64.0,29.80,SSW,210,3.0,7.0,89,0.00,,,0.01,weatherlink.com 1.10,2013-01-30 22:45:00,
2013-01-30 18:00:00,66.7,63.0,29.80,SW,221,2.0,6.0,89,0.00,,,0.01,weatherlink.com 1.10,2013-01-30 23:00:00,
2013-01-30 18:15:00,66.2,63.0,29.79,South,173,1.0,7.0,90,0.00,,,0.01,weatherlink.com 1.10,2013-01-30 23:15:00,
2013-01-30 18:30:00,66.1,63.0,29.77,South,181,3.0,10.0,90,0.00,,,0.01,weatherlink.com 1.10,2013-01-30 23:30:00,
2013-01-30 18:45:00,66.2,64.0,29.77,SSW,204,2.0,10.0,91,0.00,,,0.01,weatherlink.com 1.10,2013-01-30 23:45:00,
2013-01-30 19:00:00,65.9,63.0,29.76,SW,216,2.0,9.0,90,0.00,,,0.01,weatherlink.com 1.10,2013-01-31 00:00:00,
2013-01-30 19:16:00,66.0,64.0,29.75,South,176,2.0,9.0,92,0.00,,,0.01,weatherlink.com 1.10,2013-01-31 00:16:00,
2013-01-30 19:30:00,66.4,64.0,29.75,East,86,7.0,11.0,91,0.00,,,0.01,weatherlink.com 1.10,2013-01-31 00:30:00,
2013-01-30 19:45:00,66.7,64.0,29.74,SW,214,7.0,7.0,91,0.00,,,0.01,weatherlink.com 1.10,2013-01-31 00:45:00,
2013-01-30 20:00:00,67.2,64.0,29.74,SW,232,2.0,9.0,90,0.00,,,0.01,weatherlink.com 1.10,2013-01-31 01:00:00,
2013-01-30 20:15:00,67.4,65.0,29.73,SW,216,4.0,10.0,90,0.00,,,0.01,weatherlink.com 1.10,2013-01-31 01:15:00,
2013-01-30 20:30:00,67.7,65.0,29.74,South,184,6.0,10.0,90,0.00,,,0.01,weatherlink.com 1.10,2013-01-31 01:30:00,
2013-01-30 20:45:00,67.9,65.0,29.73,West,269,1.0,13.0,90,0.00,,,0.01,weatherlink.com 1.10,2013-01-31 01:45:00,
2013-01-30 21:00:00,67.9,65.0,29.74,SSW,200,5.0,10.0,90,0.00,,,0.01,weatherlink.com 1.10,2013-01-31 02:00:00,
2013-01-30 21:15:00,68.2,65.0,29.72,SSW,193,5.0,12.0,90,0.00,,,0.01,weatherlink.com 1.10,2013-01-31 02:15:00,
2013-01-30 21:30:00,68.0,65.0,29.71,WSW,240,11.0,17.0,90,0.00,,,0.01,weatherlink.com 1.10,2013-01-31 02:30:00,
2013-01-30 21:45:00,67.8,65.0,29.70,West,259,4.0,11.0,90,0.00,,,0.01,weatherlink.com 1.10,2013-01-31 02:45:00,
2013-01-30 22:00:00,67.8,65.0,29.70,SSE,165,4.0,17.0,90,0.00,,,0.01,weatherlink.com 1.10,2013-01-31 03:00:00,
2013-01-30 22:15:00,68.0,65.0,29.68,SSE,167,5.0,16.0,90,0.00,,,0.01,weatherlink.com 1.10,2013-01-31 03:15:00,
2013-01-30 22:30:00,68.0,65.0,29.68,South,180,4.0,18.0,90,0.00,,,0.01,weatherlink.com 1.10,2013-01-31 03:30:00,
2013-01-30 22:45:00,68.1,65.0,29.66,SSW,200,4.0,13.0,90,0.00,,,0.01,weatherlink.com 1.10,2013-01-31 03:45:00,
2013-01-30 23:00:00,68.4,65.0,29.65,NW,326,3.0,11.0,90,0.00,,,0.01,weatherlink.com 1.10,2013-01-31 04:00:00,
2013-01-30 23:16:00,68.5,65.0,29.65,SSW,197,7.0,18.0,89,0.00,,,0.01,weatherlink.com 1.10,2013-01-31 04:16:00,
2013-01-30 23:30:00,68.6,65.0,29.64,SSE,166,6.0,23.0,89,0.00,,,0.01,weatherlink.com 1.10,2013-01-31 04:30:00,
2013-01-30 23:45:00,68.9,65.0,29.64,South,186,3.0,16.0,88,0.00,,,0.01,weatherlink.com 1.10,2013-01-31 04:45:00,